sensor_id;sensor_type;location;lat;lon;timestamp;P1;durP1;ratioP1;P2;durP2;ratioP2
32082;SDS011;18597;48.328;7.932;2022-12-13T06:51:31;41.90;;;15.38;;
32082;SDS011;18597;48.328;7.932;2022-12-13T06:53:59;46.65;;;18.27;;
32082;SDS011;18597;48.328;7.932;2022-12-13T06:56:26;46.85;;;22.33;;
32082;SDS011;18597;48.328;7.932;2022-12-13T06:58:53;43.00;;;19.52;;
32082;SDS011;18597;48.328;7.932;2022-12-13T07:01:19;43.60;;;20.83;;
32082;SDS011;18597;48.328;7.932;2022-12-13T07:03:45;46.70;;;20.10;;
32082;SDS011;18597;48.328;7.932;2022-12-13T07:06:13;36.30;;;18.20;;
32082;SDS011;18597;48.328;7.932;2022-12-13T07:08:42;40.97;;;19.55;;
32082;SDS011;18597;48.328;7.932;2022-12-13T07:11:14;46.15;;;20.55;;
32082;SDS011;18597;48.328;7.932;2022-12-13T07:13:43;37.65;;;19.50;;
32082;SDS011;18597;48.328;7.932;2022-12-13T07:16:09;47.10;;;22.27;;
32082;SDS011;18597;48.328;7.932;2022-12-13T07:18:36;52.42;;;25.05;;
32082;SDS011;18597;48.328;7.932;2022-12-13T07:21:03;50.47;;;21.25;;
32082;SDS011;18597;48.328;7.932;2022-12-13T07:23:31;40.60;;;19.33;;
32082;SDS011;18597;48.328;7.932;2022-12-13T07:25:58;42.80;;;24.00;;
32082;SDS011;18597;48.328;7.932;2022-12-13T07:28:23;41.15;;;21.33;;
32082;SDS011;18597;48.328;7.932;2022-12-13T07:30:49;44.47;;;23.10;;
32082;SDS011;18597;48.328;7.932;2022-12-13T07:33:15;67.17;;;30.10;;
32082;SDS011;18597;48.328;7.932;2022-12-13T07:35:41;48.00;;;24.23;;
32082;SDS011;18597;48.328;7.932;2022-12-13T07:38:08;57.22;;;22.73;;
32082;SDS011;18597;48.328;7.932;2022-12-13T07:40:35;41.22;;;21.25;;
32082;SDS011;18597;48.328;7.932;2022-12-13T07:43:03;43.03;;;20.63;;
32082;SDS011;18597;48.328;7.932;2022-12-13T07:45:30;45.03;;;20.77;;
32082;SDS011;18597;48.328;7.932;2022-12-13T07:47:57;41.05;;;18.63;;
32082;SDS011;18597;48.328;7.932;2022-12-13T07:50:27;51.28;;;21.40;;
32082;SDS011;18597;48.328;7.932;2022-12-13T07:52:53;42.77;;;20.10;;
32082;SDS011;18597;48.328;7.932;2022-12-13T07:55:18;57.33;;;26.40;;
32082;SDS011;18597;48.328;7.932;2022-12-13T07:57:45;50.22;;;23.73;;
32082;SDS011;18597;48.328;7.932;2022-12-13T08:00:11;46.33;;;23.97;;
32082;SDS011;18597;48.328;7.932;2022-12-13T08:02:38;44.40;;;22.95;;
32082;SDS011;18597;48.328;7.932;2022-12-13T08:05:05;38.97;;;21.13;;
32082;SDS011;18597;48.328;7.932;2022-12-13T08:07:32;39.20;;;20.10;;
32082;SDS011;18597;48.328;7.932;2022-12-13T08:09:58;40.93;;;19.43;;
32082;SDS011;18597;48.328;7.932;2022-12-13T08:12:23;37.73;;;20.93;;
32082;SDS011;18597;48.328;7.932;2022-12-13T08:14:50;62.97;;;30.95;;
32082;SDS011;18597;48.328;7.932;2022-12-13T08:17:16;99.07;;;37.80;;
32082;SDS011;18597;48.328;7.932;2022-12-13T08:19:42;71.77;;;30.00;;
32082;SDS011;18597;48.328;7.932;2022-12-13T08:22:10;90.03;;;35.90;;
32082;SDS011;18597;48.328;7.932;2022-12-13T08:24:38;180.13;;;57.80;;
32082;SDS011;18597;48.328;7.932;2022-12-13T08:27:04;140.07;;;51.55;;
32082;SDS011;18597;48.328;7.932;2022-12-13T08:29:30;107.70;;;38.07;;
32082;SDS011;18597;48.328;7.932;2022-12-13T08:31:58;75.20;;;29.42;;
32082;SDS011;18597;48.328;7.932;2022-12-13T08:34:25;51.15;;;24.58;;
32082;SDS011;18597;48.328;7.932;2022-12-13T08:36:51;74.63;;;30.60;;
32082;SDS011;18597;48.328;7.932;2022-12-13T08:39:17;78.77;;;28.20;;
32082;SDS011;18597;48.328;7.932;2022-12-13T08:41:42;54.13;;;23.37;;
32082;SDS011;18597;48.328;7.932;2022-12-13T08:44:08;73.40;;;31.17;;
32082;SDS011;18597;48.328;7.932;2022-12-13T08:46:34;93.30;;;34.70;;
32082;SDS011;18597;48.328;7.932;2022-12-13T08:49:00;53.60;;;23.30;;
32082;SDS011;18597;48.328;7.932;2022-12-13T08:51:26;65.87;;;26.97;;
32082;SDS011;18597;48.328;7.932;2022-12-13T08:53:51;46.27;;;22.83;;
32082;SDS011;18597;48.328;7.932;2022-12-13T08:56:17;39.50;;;22.40;;
32082;SDS011;18597;48.328;7.932;2022-12-13T08:58:47;64.88;;;31.77;;
32082;SDS011;18597;48.328;7.932;2022-12-13T09:01:15;63.33;;;32.80;;
32082;SDS011;18597;48.328;7.932;2022-12-13T09:03:41;80.57;;;36.60;;
32082;SDS011;18597;48.328;7.932;2022-12-13T09:06:07;71.20;;;33.73;;
32082;SDS011;18597;48.328;7.932;2022-12-13T09:08:37;54.13;;;27.93;;
32082;SDS011;18597;48.328;7.932;2022-12-13T09:11:03;38.20;;;21.80;;
32082;SDS011;18597;48.328;7.932;2022-12-13T09:13:32;38.70;;;21.63;;
32082;SDS011;18597;48.328;7.932;2022-12-13T09:16:07;40.37;;;20.40;;
32082;SDS011;18597;48.328;7.932;2022-12-13T09:18:38;51.00;;;27.20;;
32082;SDS011;18597;48.328;7.932;2022-12-13T09:21:05;45.47;;;22.60;;
32082;SDS011;18597;48.328;7.932;2022-12-13T09:23:33;37.27;;;21.03;;
32082;SDS011;18597;48.328;7.932;2022-12-13T09:26:00;31.93;;;20.73;;
32082;SDS011;18597;48.328;7.932;2022-12-13T09:28:27;35.97;;;19.80;;
32082;SDS011;18597;48.328;7.932;2022-12-13T09:30:54;33.37;;;20.60;;
32082;SDS011;18597;48.328;7.932;2022-12-13T09:33:22;30.40;;;19.10;;
32082;SDS011;18597;48.328;7.932;2022-12-13T09:35:48;38.60;;;21.00;;
32082;SDS011;18597;48.328;7.932;2022-12-13T09:38:15;47.70;;;25.10;;
32082;SDS011;18597;48.328;7.932;2022-12-13T09:40:51;23.20;;;12.37;;
32082;SDS011;18597;48.328;7.932;2022-12-13T09:43:23;15.70;;;9.37;;
32082;SDS011;18597;48.328;7.932;2022-12-13T09:45:54;14.70;;;8.57;;
32082;SDS011;18597;48.328;7.932;2022-12-13T09:48:20;13.97;;;8.20;;
32082;SDS011;18597;48.328;7.932;2022-12-13T09:50:47;16.07;;;9.10;;
32082;SDS011;18597;48.328;7.932;2022-12-13T09:53:14;18.87;;;10.73;;
32082;SDS011;18597;48.328;7.932;2022-12-13T09:55:44;17.77;;;11.93;;
32082;SDS011;18597;48.328;7.932;2022-12-13T09:58:16;30.20;;;13.90;;
32082;SDS011;18597;48.328;7.932;2022-12-13T10:00:48;18.93;;;10.53;;
32082;SDS011;18597;48.328;7.932;2022-12-13T10:03:17;21.90;;;10.60;;
32082;SDS011;18597;48.328;7.932;2022-12-13T10:06:18;14.07;;;8.77;;
32082;SDS011;18597;48.328;7.932;2022-12-13T10:08:43;13.13;;;7.20;;
32082;SDS011;18597;48.328;7.932;2022-12-13T10:11:15;20.57;;;10.27;;
32082;SDS011;18597;48.328;7.932;2022-12-13T10:14:16;10.80;;;7.50;;
32082;SDS011;18597;48.328;7.932;2022-12-13T10:19:18;7.47;;;5.97;;
32082;SDS011;18597;48.328;7.932;2022-12-13T10:21:52;8.90;;;6.40;;
32082;SDS011;18597;48.328;7.932;2022-12-13T10:24:20;17.30;;;9.70;;
32082;SDS011;18597;48.328;7.932;2022-12-13T10:26:51;13.37;;;8.40;;
32082;SDS011;18597;48.328;7.932;2022-12-13T10:29:18;16.90;;;9.77;;
32082;SDS011;18597;48.328;7.932;2022-12-13T10:31:48;19.87;;;9.57;;
32082;SDS011;18597;48.328;7.932;2022-12-13T10:34:21;34.80;;;25.40;;
32082;SDS011;18597;48.328;7.932;2022-12-13T10:36:52;17.17;;;11.20;;
32082;SDS011;18597;48.328;7.932;2022-12-13T10:39:49;14.77;;;10.27;;
32082;SDS011;18597;48.328;7.932;2022-12-13T10:42:14;22.17;;;10.63;;
32082;SDS011;18597;48.328;7.932;2022-12-13T10:44:43;11.60;;;6.33;;
32082;SDS011;18597;48.328;7.932;2022-12-13T10:49:51;8.10;;;6.50;;
32082;SDS011;18597;48.328;7.932;2022-12-13T10:52:28;12.10;;;7.10;;
32082;SDS011;18597;48.328;7.932;2022-12-13T10:55:02;9.20;;;6.47;;
32082;SDS011;18597;48.328;7.932;2022-12-13T10:57:35;8.33;;;6.10;;
32082;SDS011;18597;48.328;7.932;2022-12-13T11:00:02;5.30;;;4.90;;
32082;SDS011;18597;48.328;7.932;2022-12-13T11:02:52;5.23;;;4.40;;
32082;SDS011;18597;48.328;7.932;2022-12-13T11:05:25;9.17;;;6.90;;
32082;SDS011;18597;48.328;7.932;2022-12-13T11:07:54;5.87;;;5.07;;
32082;SDS011;18597;48.328;7.932;2022-12-13T11:10:42;13.00;;;7.20;;
32082;SDS011;18597;48.328;7.932;2022-12-13T11:13:17;7.20;;;6.53;;
32082;SDS011;18597;48.328;7.932;2022-12-13T11:15:53;5.93;;;5.00;;
32082;SDS011;18597;48.328;7.932;2022-12-13T11:18:21;7.27;;;5.27;;
32082;SDS011;18597;48.328;7.932;2022-12-13T11:20:53;5.67;;;4.47;;
32082;SDS011;18597;48.328;7.932;2022-12-13T11:23:27;9.07;;;5.47;;
32082;SDS011;18597;48.328;7.932;2022-12-13T11:25:59;8.73;;;5.20;;
32082;SDS011;18597;48.328;7.932;2022-12-13T11:31:12;9.43;;;6.20;;
32082;SDS011;18597;48.328;7.932;2022-12-13T11:34:27;12.77;;;6.87;;
32082;SDS011;18597;48.328;7.932;2022-12-13T11:37:27;8.73;;;5.90;;
32082;SDS011;18597;48.328;7.932;2022-12-13T11:40:04;7.50;;;6.20;;
32082;SDS011;18597;48.328;7.932;2022-12-13T11:42:48;6.80;;;6.03;;
32082;SDS011;18597;48.328;7.932;2022-12-13T11:45:56;6.93;;;6.23;;
32082;SDS011;18597;48.328;7.932;2022-12-13T11:48:57;5.73;;;4.40;;
32082;SDS011;18597;48.328;7.932;2022-12-13T11:51:20;5.93;;;5.07;;
32082;SDS011;18597;48.328;7.932;2022-12-13T11:54:08;7.20;;;5.03;;
32082;SDS011;18597;48.328;7.932;2022-12-13T11:56:44;5.10;;;4.20;;
32082;SDS011;18597;48.328;7.932;2022-12-13T12:02:04;7.17;;;5.40;;
32082;SDS011;18597;48.328;7.932;2022-12-13T12:04:54;10.03;;;5.00;;
32082;SDS011;18597;48.328;7.932;2022-12-13T12:07:28;8.93;;;4.73;;
32082;SDS011;18597;48.328;7.932;2022-12-13T12:12:47;7.73;;;4.83;;
32082;SDS011;18597;48.328;7.932;2022-12-13T12:15:28;6.10;;;5.20;;
32082;SDS011;18597;48.328;7.932;2022-12-13T12:17:59;6.47;;;5.70;;
32082;SDS011;18597;48.328;7.932;2022-12-13T12:20:32;6.90;;;5.43;;
32082;SDS011;18597;48.328;7.932;2022-12-13T12:23:19;11.03;;;6.70;;
32082;SDS011;18597;48.328;7.932;2022-12-13T12:26:06;6.53;;;5.07;;
32082;SDS011;18597;48.328;7.932;2022-12-13T12:32:06;8.67;;;5.83;;
32082;SDS011;18597;48.328;7.932;2022-12-13T12:35:10;9.60;;;7.30;;
32082;SDS011;18597;48.328;7.932;2022-12-13T12:38:25;18.20;;;9.37;;
32082;SDS011;18597;48.328;7.932;2022-12-13T12:41:23;24.30;;;13.10;;
32082;SDS011;18597;48.328;7.932;2022-12-13T12:44:19;11.50;;;7.17;;
32082;SDS011;18597;48.328;7.932;2022-12-13T12:47:29;16.20;;;7.10;;
32082;SDS011;18597;48.328;7.932;2022-12-13T12:50:31;18.13;;;9.17;;
32082;SDS011;18597;48.328;7.932;2022-12-13T12:53:53;11.03;;;7.97;;
32082;SDS011;18597;48.328;7.932;2022-12-13T12:59:39;7.43;;;6.73;;
32082;SDS011;18597;48.328;7.932;2022-12-13T13:02:32;7.40;;;5.00;;
32082;SDS011;18597;48.328;7.932;2022-12-13T13:05:11;8.80;;;6.60;;
32082;SDS011;18597;48.328;7.932;2022-12-13T13:07:49;11.20;;;8.00;;
32082;SDS011;18597;48.328;7.932;2022-12-13T13:10:23;9.90;;;5.93;;
32082;SDS011;18597;48.328;7.932;2022-12-13T13:12:50;10.20;;;8.07;;
32082;SDS011;18597;48.328;7.932;2022-12-13T13:18:40;7.27;;;6.53;;
32082;SDS011;18597;48.328;7.932;2022-12-13T13:24:14;21.10;;;12.30;;
32082;SDS011;18597;48.328;7.932;2022-12-13T13:26:58;8.60;;;5.50;;
32082;SDS011;18597;48.328;7.932;2022-12-13T13:29:53;7.33;;;5.30;;
32082;SDS011;18597;48.328;7.932;2022-12-13T13:32:39;6.80;;;5.33;;
32082;SDS011;18597;48.328;7.932;2022-12-13T13:38:51;6.40;;;5.57;;
32082;SDS011;18597;48.328;7.932;2022-12-13T13:41:37;7.17;;;5.63;;
32082;SDS011;18597;48.328;7.932;2022-12-13T13:59:04;16.37;;;6.77;;
32082;SDS011;18597;48.328;7.932;2022-12-13T14:15:05;16.23;;;8.07;;
32082;SDS011;18597;48.328;7.932;2022-12-13T14:18:27;111.20;;;47.70;;
32082;SDS011;18597;48.328;7.932;2022-12-13T14:31:19;6.47;;;5.80;;
32082;SDS011;18597;48.328;7.932;2022-12-13T14:33:52;11.30;;;8.53;;
32082;SDS011;18597;48.328;7.932;2022-12-13T14:36:30;20.80;;;8.77;;
32082;SDS011;18597;48.328;7.932;2022-12-13T14:39:00;31.90;;;16.70;;
32082;SDS011;18597;48.328;7.932;2022-12-13T14:41:29;25.97;;;14.17;;
32082;SDS011;18597;48.328;7.932;2022-12-13T14:44:11;19.87;;;11.63;;
32082;SDS011;18597;48.328;7.932;2022-12-13T14:46:55;13.17;;;8.30;;
32082;SDS011;18597;48.328;7.932;2022-12-13T14:49:25;10.17;;;6.80;;
32082;SDS011;18597;48.328;7.932;2022-12-13T14:51:55;7.67;;;5.40;;
32082;SDS011;18597;48.328;7.932;2022-12-13T14:54:58;9.20;;;5.87;;
32082;SDS011;18597;48.328;7.932;2022-12-13T14:57:29;15.13;;;8.47;;
32082;SDS011;18597;48.328;7.932;2022-12-13T14:59:58;10.67;;;7.80;;
32082;SDS011;18597;48.328;7.932;2022-12-13T15:02:49;15.80;;;10.10;;
32082;SDS011;18597;48.328;7.932;2022-12-13T15:05:25;24.80;;;13.60;;
32082;SDS011;18597;48.328;7.932;2022-12-13T15:07:58;32.80;;;18.27;;
32082;SDS011;18597;48.328;7.932;2022-12-13T15:10:37;36.70;;;21.80;;
32082;SDS011;18597;48.328;7.932;2022-12-13T15:13:26;42.37;;;22.20;;
32082;SDS011;18597;48.328;7.932;2022-12-13T15:16:21;50.57;;;22.03;;
32082;SDS011;18597;48.328;7.932;2022-12-13T15:19:14;39.27;;;21.30;;
32082;SDS011;18597;48.328;7.932;2022-12-13T15:22:10;56.23;;;25.77;;
32082;SDS011;18597;48.328;7.932;2022-12-13T15:24:39;73.10;;;29.20;;
32082;SDS011;18597;48.328;7.932;2022-12-13T15:27:06;59.50;;;28.90;;
32082;SDS011;18597;48.328;7.932;2022-12-13T15:29:32;56.97;;;28.57;;
32082;SDS011;18597;48.328;7.932;2022-12-13T15:31:59;39.40;;;22.40;;
32082;SDS011;18597;48.328;7.932;2022-12-13T15:37:04;42.53;;;20.67;;
32082;SDS011;18597;48.328;7.932;2022-12-13T15:39:42;40.33;;;22.97;;
32082;SDS011;18597;48.328;7.932;2022-12-13T15:42:15;44.57;;;24.00;;
32082;SDS011;18597;48.328;7.932;2022-12-13T15:44:53;45.10;;;26.23;;
32082;SDS011;18597;48.328;7.932;2022-12-13T15:47:23;22.90;;;13.40;;
32082;SDS011;18597;48.328;7.932;2022-12-13T15:52:41;41.00;;;23.20;;
32082;SDS011;18597;48.328;7.932;2022-12-13T15:57:51;37.23;;;20.90;;
32082;SDS011;18597;48.328;7.932;2022-12-13T16:00:22;52.83;;;24.83;;
32082;SDS011;18597;48.328;7.932;2022-12-13T16:02:55;47.07;;;24.83;;
32082;SDS011;18597;48.328;7.932;2022-12-13T16:05:49;55.43;;;26.70;;
32082;SDS011;18597;48.328;7.932;2022-12-13T16:08:50;50.07;;;26.40;;
32082;SDS011;18597;48.328;7.932;2022-12-13T16:11:05;22.43;;;13.50;;
32082;SDS011;18597;48.328;7.932;2022-12-13T16:13:33;43.57;;;23.70;;
32082;SDS011;18597;48.328;7.932;2022-12-13T16:16:33;50.80;;;23.60;;
32082;SDS011;18597;48.328;7.932;2022-12-13T16:18:53;52.57;;;29.07;;
32082;SDS011;18597;48.328;7.932;2022-12-13T16:21:24;46.30;;;24.37;;
32082;SDS011;18597;48.328;7.932;2022-12-13T16:23:52;44.60;;;24.40;;
32082;SDS011;18597;48.328;7.932;2022-12-13T16:26:20;37.30;;;23.33;;
32082;SDS011;18597;48.328;7.932;2022-12-13T16:28:49;45.80;;;22.03;;
32082;SDS011;18597;48.328;7.932;2022-12-13T16:31:17;42.63;;;22.57;;
32082;SDS011;18597;48.328;7.932;2022-12-13T16:33:46;35.57;;;22.53;;
32082;SDS011;18597;48.328;7.932;2022-12-13T16:36:12;45.60;;;24.50;;
32082;SDS011;18597;48.328;7.932;2022-12-13T16:38:38;47.30;;;23.80;;
32082;SDS011;18597;48.328;7.932;2022-12-13T16:41:04;46.50;;;23.77;;
32082;SDS011;18597;48.328;7.932;2022-12-13T16:43:31;19.03;;;12.00;;
32082;SDS011;18597;48.328;7.932;2022-12-13T16:46:02;39.47;;;20.43;;
32082;SDS011;18597;48.328;7.932;2022-12-13T16:48:29;45.20;;;25.60;;
32082;SDS011;18597;48.328;7.932;2022-12-13T16:50:55;54.03;;;25.43;;
32082;SDS011;18597;48.328;7.932;2022-12-13T16:53:21;46.93;;;24.47;;
32082;SDS011;18597;48.328;7.932;2022-12-13T16:55:55;40.23;;;23.43;;
32082;SDS011;18597;48.328;7.932;2022-12-13T16:58:20;43.23;;;24.03;;
32082;SDS011;18597;48.328;7.932;2022-12-13T17:00:47;32.63;;;20.27;;
32082;SDS011;18597;48.328;7.932;2022-12-13T17:03:13;35.87;;;18.67;;
32082;SDS011;18597;48.328;7.932;2022-12-13T17:05:40;42.80;;;23.27;;
32082;SDS011;18597;48.328;7.932;2022-12-13T17:08:10;58.00;;;27.00;;
32082;SDS011;18597;48.328;7.932;2022-12-13T17:10:39;42.70;;;22.73;;
32082;SDS011;18597;48.328;7.932;2022-12-13T17:13:06;41.93;;;23.93;;
32082;SDS011;18597;48.328;7.932;2022-12-13T17:15:33;49.03;;;24.97;;
32082;SDS011;18597;48.328;7.932;2022-12-13T17:17:58;44.07;;;22.70;;
32082;SDS011;18597;48.328;7.932;2022-12-13T17:20:25;49.30;;;26.13;;
32082;SDS011;18597;48.328;7.932;2022-12-13T17:22:51;59.17;;;32.17;;
32082;SDS011;18597;48.328;7.932;2022-12-13T17:25:17;54.13;;;31.27;;
32082;SDS011;18597;48.328;7.932;2022-12-13T17:27:43;53.40;;;29.33;;
32082;SDS011;18597;48.328;7.932;2022-12-13T17:30:11;52.87;;;28.30;;
32082;SDS011;18597;48.328;7.932;2022-12-13T17:32:41;54.97;;;31.07;;
32082;SDS011;18597;48.328;7.932;2022-12-13T17:35:07;62.53;;;31.53;;
32082;SDS011;18597;48.328;7.932;2022-12-13T17:37:33;51.23;;;29.10;;
32082;SDS011;18597;48.328;7.932;2022-12-13T17:39:59;55.13;;;27.67;;
32082;SDS011;18597;48.328;7.932;2022-12-13T17:42:25;55.80;;;31.90;;
32082;SDS011;18597;48.328;7.932;2022-12-13T17:44:50;55.37;;;28.90;;
32082;SDS011;18597;48.328;7.932;2022-12-13T17:47:16;63.53;;;30.17;;
32082;SDS011;18597;48.328;7.932;2022-12-13T17:49:42;48.80;;;27.30;;
32082;SDS011;18597;48.328;7.932;2022-12-13T17:52:08;48.67;;;26.40;;
32082;SDS011;18597;48.328;7.932;2022-12-13T17:54:33;51.27;;;28.47;;
32082;SDS011;18597;48.328;7.932;2022-12-13T17:57:00;63.37;;;28.20;;
32082;SDS011;18597;48.328;7.932;2022-12-13T17:59:26;53.90;;;29.73;;
32082;SDS011;18597;48.328;7.932;2022-12-13T18:01:52;64.03;;;27.50;;
32082;SDS011;18597;48.328;7.932;2022-12-13T18:04:18;55.50;;;28.87;;
32082;SDS011;18597;48.328;7.932;2022-12-13T18:06:45;56.50;;;30.57;;
32082;SDS011;18597;48.328;7.932;2022-12-13T18:09:11;62.50;;;29.67;;
32082;SDS011;18597;48.328;7.932;2022-12-13T18:11:37;58.90;;;29.20;;
32082;SDS011;18597;48.328;7.932;2022-12-13T18:14:04;58.77;;;30.13;;
32082;SDS011;18597;48.328;7.932;2022-12-13T18:16:32;55.50;;;27.27;;
32082;SDS011;18597;48.328;7.932;2022-12-13T18:18:58;51.13;;;26.63;;
32082;SDS011;18597;48.328;7.932;2022-12-13T18:21:24;53.33;;;28.50;;
32082;SDS011;18597;48.328;7.932;2022-12-13T18:23:51;47.73;;;27.07;;
32082;SDS011;18597;48.328;7.932;2022-12-13T18:26:18;48.13;;;26.93;;
32082;SDS011;18597;48.328;7.932;2022-12-13T18:28:44;48.57;;;25.87;;
32082;SDS011;18597;48.328;7.932;2022-12-13T18:31:12;53.50;;;28.47;;
32082;SDS011;18597;48.328;7.932;2022-12-13T18:33:42;45.97;;;27.87;;
32082;SDS011;18597;48.328;7.932;2022-12-13T18:36:09;57.60;;;28.70;;
32082;SDS011;18597;48.328;7.932;2022-12-13T18:38:37;52.93;;;28.73;;
32082;SDS011;18597;48.328;7.932;2022-12-13T18:41:04;56.80;;;31.27;;
32082;SDS011;18597;48.328;7.932;2022-12-13T18:43:38;48.60;;;26.47;;
32082;SDS011;18597;48.328;7.932;2022-12-13T18:46:05;51.50;;;27.00;;
32082;SDS011;18597;48.328;7.932;2022-12-13T18:48:32;54.90;;;25.60;;
32082;SDS011;18597;48.328;7.932;2022-12-13T18:50:58;51.07;;;25.37;;
32082;SDS011;18597;48.328;7.932;2022-12-13T18:53:26;47.57;;;25.07;;
32082;SDS011;18597;48.328;7.932;2022-12-13T18:55:52;45.93;;;25.23;;
32082;SDS011;18597;48.328;7.932;2022-12-13T18:58:31;51.27;;;26.67;;
32082;SDS011;18597;48.328;7.932;2022-12-13T19:00:57;43.47;;;25.63;;
32082;SDS011;18597;48.328;7.932;2022-12-13T19:03:24;52.60;;;29.77;;
32082;SDS011;18597;48.328;7.932;2022-12-13T19:05:50;43.00;;;24.80;;
32082;SDS011;18597;48.328;7.932;2022-12-13T19:08:17;61.60;;;33.20;;
32082;SDS011;18597;48.328;7.932;2022-12-13T19:10:43;51.50;;;26.77;;
32082;SDS011;18597;48.328;7.932;2022-12-13T19:13:10;43.17;;;25.47;;
32082;SDS011;18597;48.328;7.932;2022-12-13T19:15:37;45.57;;;24.60;;
32082;SDS011;18597;48.328;7.932;2022-12-13T19:18:04;39.60;;;23.50;;
32082;SDS011;18597;48.328;7.932;2022-12-13T19:20:30;44.33;;;22.87;;
32082;SDS011;18597;48.328;7.932;2022-12-13T19:22:56;45.13;;;22.03;;
32082;SDS011;18597;48.328;7.932;2022-12-13T19:25:21;48.93;;;24.27;;
32082;SDS011;18597;48.328;7.932;2022-12-13T19:27:47;42.60;;;25.33;;
32082;SDS011;18597;48.328;7.932;2022-12-13T19:30:13;43.20;;;25.77;;
32082;SDS011;18597;48.328;7.932;2022-12-13T19:32:41;41.27;;;24.00;;
32082;SDS011;18597;48.328;7.932;2022-12-13T19:35:07;56.57;;;28.23;;
32082;SDS011;18597;48.328;7.932;2022-12-13T19:37:34;55.17;;;27.43;;
32082;SDS011;18597;48.328;7.932;2022-12-13T19:40:00;47.23;;;26.53;;
32082;SDS011;18597;48.328;7.932;2022-12-13T19:42:26;46.00;;;26.67;;
32082;SDS011;18597;48.328;7.932;2022-12-13T19:44:51;46.20;;;23.87;;
32082;SDS011;18597;48.328;7.932;2022-12-13T19:47:17;48.97;;;26.17;;
32082;SDS011;18597;48.328;7.932;2022-12-13T19:49:43;43.57;;;25.23;;
32082;SDS011;18597;48.328;7.932;2022-12-13T19:52:09;46.93;;;25.40;;
32082;SDS011;18597;48.328;7.932;2022-12-13T19:54:35;53.80;;;26.10;;
32082;SDS011;18597;48.328;7.932;2022-12-13T19:57:01;43.07;;;25.93;;
32082;SDS011;18597;48.328;7.932;2022-12-13T19:59:27;45.00;;;25.63;;
32082;SDS011;18597;48.328;7.932;2022-12-13T20:01:52;51.83;;;26.93;;
32082;SDS011;18597;48.328;7.932;2022-12-13T20:04:18;54.43;;;26.27;;
32082;SDS011;18597;48.328;7.932;2022-12-13T20:06:44;55.70;;;31.13;;
32082;SDS011;18597;48.328;7.932;2022-12-13T20:09:10;50.07;;;27.20;;
32082;SDS011;18597;48.328;7.932;2022-12-13T20:11:37;54.80;;;29.30;;
32082;SDS011;18597;48.328;7.932;2022-12-13T20:14:02;52.97;;;27.90;;
32082;SDS011;18597;48.328;7.932;2022-12-13T20:16:28;65.77;;;29.73;;
32082;SDS011;18597;48.328;7.932;2022-12-13T20:18:55;51.50;;;28.03;;
32082;SDS011;18597;48.328;7.932;2022-12-13T20:21:23;49.53;;;25.13;;
32082;SDS011;18597;48.328;7.932;2022-12-13T20:23:50;49.23;;;24.67;;
32082;SDS011;18597;48.328;7.932;2022-12-13T20:26:18;43.60;;;25.10;;
32082;SDS011;18597;48.328;7.932;2022-12-13T20:28:48;51.87;;;28.27;;
32082;SDS011;18597;48.328;7.932;2022-12-13T20:31:16;42.27;;;24.97;;
32082;SDS011;18597;48.328;7.932;2022-12-13T20:33:45;48.63;;;24.77;;
32082;SDS011;18597;48.328;7.932;2022-12-13T20:36:12;46.87;;;24.17;;
32082;SDS011;18597;48.328;7.932;2022-12-13T20:38:41;52.33;;;26.57;;
32082;SDS011;18597;48.328;7.932;2022-12-13T20:41:07;45.60;;;26.23;;
32082;SDS011;18597;48.328;7.932;2022-12-13T20:43:36;46.50;;;24.30;;
32082;SDS011;18597;48.328;7.932;2022-12-13T20:46:06;49.70;;;26.20;;
32082;SDS011;18597;48.328;7.932;2022-12-13T20:48:43;48.40;;;23.23;;
32082;SDS011;18597;48.328;7.932;2022-12-13T20:51:11;51.27;;;25.37;;
32082;SDS011;18597;48.328;7.932;2022-12-13T20:53:41;53.37;;;24.33;;
32082;SDS011;18597;48.328;7.932;2022-12-13T20:56:11;52.60;;;24.50;;
32082;SDS011;18597;48.328;7.932;2022-12-13T20:58:40;42.40;;;23.73;;
32082;SDS011;18597;48.328;7.932;2022-12-13T21:01:07;50.93;;;24.23;;
32082;SDS011;18597;48.328;7.932;2022-12-13T21:03:42;45.60;;;26.57;;
32082;SDS011;18597;48.328;7.932;2022-12-13T21:06:09;41.07;;;24.73;;
32082;SDS011;18597;48.328;7.932;2022-12-13T21:08:36;45.13;;;25.23;;
32082;SDS011;18597;48.328;7.932;2022-12-13T21:11:19;60.53;;;25.87;;
32082;SDS011;18597;48.328;7.932;2022-12-13T21:13:49;49.27;;;26.87;;
32082;SDS011;18597;48.328;7.932;2022-12-13T21:16:28;52.27;;;26.87;;
32082;SDS011;18597;48.328;7.932;2022-12-13T21:19:00;52.83;;;26.90;;
32082;SDS011;18597;48.328;7.932;2022-12-13T21:21:26;57.40;;;28.50;;
32082;SDS011;18597;48.328;7.932;2022-12-13T21:23:53;56.73;;;27.20;;
32082;SDS011;18597;48.328;7.932;2022-12-13T21:26:20;54.70;;;27.70;;
32082;SDS011;18597;48.328;7.932;2022-12-13T21:28:57;51.77;;;28.23;;
32082;SDS011;18597;48.328;7.932;2022-12-13T21:31:26;58.83;;;30.70;;
32082;SDS011;18597;48.328;7.932;2022-12-13T21:33:54;53.93;;;28.20;;
32082;SDS011;18597;48.328;7.932;2022-12-13T21:36:23;45.93;;;25.57;;
32082;SDS011;18597;48.328;7.932;2022-12-13T21:38:53;56.50;;;27.37;;
32082;SDS011;18597;48.328;7.932;2022-12-13T21:41:21;44.00;;;24.90;;
32082;SDS011;18597;48.328;7.932;2022-12-13T21:43:48;48.63;;;27.53;;
32082;SDS011;18597;48.328;7.932;2022-12-13T21:46:16;44.40;;;25.30;;
32082;SDS011;18597;48.328;7.932;2022-12-13T21:48:44;49.90;;;26.60;;
32082;SDS011;18597;48.328;7.932;2022-12-13T21:51:12;49.83;;;25.77;;
32082;SDS011;18597;48.328;7.932;2022-12-13T21:53:41;50.80;;;25.50;;
32082;SDS011;18597;48.328;7.932;2022-12-13T21:56:10;49.60;;;25.83;;
32082;SDS011;18597;48.328;7.932;2022-12-13T21:58:59;55.20;;;28.27;;
32082;SDS011;18597;48.328;7.932;2022-12-13T22:01:56;50.90;;;24.00;;
32082;SDS011;18597;48.328;7.932;2022-12-13T22:04:43;45.77;;;25.90;;
32082;SDS011;18597;48.328;7.932;2022-12-13T22:07:23;51.60;;;25.50;;
32082;SDS011;18597;48.328;7.932;2022-12-13T22:09:55;50.53;;;27.23;;
32082;SDS011;18597;48.328;7.932;2022-12-13T22:12:24;47.07;;;26.43;;
32082;SDS011;18597;48.328;7.932;2022-12-13T22:15:08;50.87;;;26.97;;
32082;SDS011;18597;48.328;7.932;2022-12-13T22:17:37;55.53;;;29.23;;
32082;SDS011;18597;48.328;7.932;2022-12-13T22:20:04;77.53;;;29.83;;
32082;SDS011;18597;48.328;7.932;2022-12-13T22:22:36;60.30;;;29.10;;
32082;SDS011;18597;48.328;7.932;2022-12-13T22:25:03;66.67;;;30.57;;
32082;SDS011;18597;48.328;7.932;2022-12-13T22:27:30;56.37;;;30.67;;
32082;SDS011;18597;48.328;7.932;2022-12-13T22:29:56;57.20;;;30.53;;
32082;SDS011;18597;48.328;7.932;2022-12-13T22:32:23;52.30;;;27.30;;
32082;SDS011;18597;48.328;7.932;2022-12-13T22:34:50;58.17;;;30.17;;
32082;SDS011;18597;48.328;7.932;2022-12-13T22:37:16;53.87;;;28.10;;
32082;SDS011;18597;48.328;7.932;2022-12-13T22:39:42;59.07;;;29.63;;
32082;SDS011;18597;48.328;7.932;2022-12-13T22:42:08;57.17;;;28.00;;
32082;SDS011;18597;48.328;7.932;2022-12-13T22:44:34;49.90;;;27.67;;
32082;SDS011;18597;48.328;7.932;2022-12-13T22:47:00;53.37;;;28.97;;
32082;SDS011;18597;48.328;7.932;2022-12-13T22:49:25;74.50;;;36.60;;
32082;SDS011;18597;48.328;7.932;2022-12-13T22:51:51;80.23;;;38.43;;
32082;SDS011;18597;48.328;7.932;2022-12-13T22:54:17;72.80;;;35.37;;
32082;SDS011;18597;48.328;7.932;2022-12-13T22:56:43;72.40;;;35.23;;
32082;SDS011;18597;48.328;7.932;2022-12-13T22:59:09;56.10;;;29.70;;